.
WxDataArchive / Data Records for 2016-06-05
2016-06-04 June 2016 2016-06-06

Data Records for Sunday, 05 June 2016

Time	Temp	Chill	HIndex	Humid	Dewpt	 Wind 	HiWind	WindDir	Rain 	Barom
-----	----	-----	------	-----	-----	------	------	-------	-----	-----
00:00	63.9	63.9	63.9	97	63.0	0	0	---	0.00	29.674 
00:05	64.0	64.0	64.0	97	63.1	0	0	---	0.00	29.674 
00:10	64.2	64.2	64.2	97	63.3	0	0	---	0.00	29.674 
00:15	64.2	64.2	64.2	97	63.3	0	0	---	0.00	29.669 
00:20	64.2	64.2	64.2	97	63.3	0	0	---	0.00	29.669 
00:25	64.2	64.2	64.2	97	63.3	0	0	---	0.00	29.669 
00:30	64.2	64.2	64.2	97	63.3	0	0	---	0.00	29.670 
00:35	64.2	64.2	64.2	97	63.3	0	0	---	0.00	29.670 
00:40	64.2	64.2	64.2	97	63.3	0	0	---	0.00	29.670 
00:45	64.2	64.2	64.2	97	63.3	0	1	292	0.00	29.668 
00:50	64.3	64.3	64.3	97	63.4	0	1	292	0.00	29.668 
00:55	64.3	64.3	64.3	97	63.4	0	1	292	0.00	29.668 
01:00	64.3	64.3	64.3	97	63.4	0	2	292	0.00	29.661 
01:05	64.5	64.5	64.5	97	63.6	0	1	292	0.00	29.661 
01:10	64.5	64.5	64.5	97	63.6	0	1	292	0.00	29.661 
01:15	64.7	64.7	64.7	97	63.8	0	1	292	0.00	29.659 
01:20	64.7	64.7	64.7	97	63.8	0	2	292	0.00	29.659 
01:25	64.7	64.7	64.7	97	63.8	0	3	292	0.00	29.659 
01:30	64.7	64.7	64.7	97	63.8	0	2	292	0.00	29.654 
01:35	64.7	64.7	64.7	97	63.8	0	1	292	0.00	29.654 
01:40	64.7	64.7	64.7	97	63.8	0	1	292	0.00	29.654 
01:45	64.7	64.7	64.7	97	63.8	0	1	292	0.00	29.654 
01:50	64.7	64.7	64.7	97	63.8	0	1	292	0.00	29.654 
01:55	64.7	64.7	64.7	97	63.8	0	3	292	0.00	29.654 
02:00	64.7	64.7	64.7	97	63.8	0	3	338	0.00	29.644 
02:05	64.7	64.7	64.7	97	63.8	0	2	338	0.00	29.644 
02:10	64.7	64.7	64.7	97	63.8	0	3	338	0.00	29.644 
02:15	64.5	64.5	64.5	97	63.6	0	3	338	0.00	29.646 
02:20	64.5	64.5	64.5	97	63.6	0	1	338	0.00	29.646 
02:25	64.5	64.5	64.5	97	63.6	0	1	338	0.00	29.646 
02:30	64.5	64.5	64.5	97	63.6	0	1	338	0.00	29.639 
02:35	64.5	64.5	64.5	97	63.6	0	1	338	0.00	29.639 
02:40	64.5	64.5	64.5	97	63.6	0	1	338	0.00	29.639 
02:45	64.5	64.5	64.5	97	63.6	0	1	338	0.00	29.632 
02:50	64.5	64.5	64.5	97	63.6	0	1	338	0.00	29.632 
02:55	64.5	64.5	64.5	97	63.6	0	1	338	0.00	29.632 
03:00	64.5	64.5	64.5	97	63.6	0	1	338	0.00	29.632 
03:05	64.5	64.5	64.5	97	63.6	0	0	---	0.00	29.632 
03:10	64.5	64.5	64.5	97	63.6	0	1	338	0.00	29.632 
03:15	64.5	64.5	64.5	97	63.6	0	1	338	0.00	29.632 
03:20	64.5	64.5	64.5	97	63.6	0	0	---	0.00	29.632 
03:25	64.5	64.5	64.5	97	63.6	0	0	---	0.00	29.632 
03:30	64.7	64.7	64.7	97	63.8	0	1	338	0.00	29.630 
03:35	64.7	64.7	64.7	97	63.8	0	2	338	0.00	29.630 
03:40	64.7	64.7	64.7	97	63.8	0	1	338	0.00	29.630 
03:45	64.8	64.8	64.8	97	63.9	0	1	338	0.00	29.626 
03:50	64.8	64.8	64.8	97	63.9	0	1	338	0.00	29.626 
03:55	64.7	64.7	64.7	97	63.8	0	1	338	0.00	29.626 
04:00	64.7	64.7	64.7	97	63.8	0	1	338	0.00	29.619 
04:05	64.5	64.5	64.5	97	63.6	0	1	338	0.00	29.619 
04:10	64.7	64.7	64.7	97	63.8	0	1	338	0.00	29.619 
04:15	64.5	64.5	64.5	97	63.6	0	1	338	0.00	29.618 
04:20	64.5	64.5	64.5	97	63.6	0	1	338	0.00	29.618 
04:25	64.5	64.5	64.5	97	63.6	0	2	338	0.00	29.618 
04:30	64.3	64.3	64.3	97	63.4	0	1	338	0.00	29.618 
04:35	64.2	64.2	64.2	97	63.3	0	1	338	0.00	29.618 
04:40	64.3	64.3	64.3	97	63.4	0	1	338	0.00	29.618 
04:45	64.3	64.3	64.3	97	63.4	0	1	338	0.00	29.617 
04:50	64.3	64.3	64.3	97	63.4	0	1	338	0.00	29.617 
04:55	64.3	64.3	64.3	97	63.4	0	2	338	0.00	29.617 
05:00	64.5	64.5	64.5	97	63.6	0	1	338	0.00	29.615 
05:05	64.3	64.3	64.3	97	63.4	0	2	338	0.00	29.615 
05:10	64.3	64.3	64.3	97	63.4	0	1	338	0.00	29.615 
05:15	64.3	64.3	64.3	97	63.4	0	1	338	0.00	29.616 
05:20	64.3	64.3	64.3	97	63.4	0	1	338	0.00	29.616 
05:25	64.3	64.3	64.3	97	63.4	0	1	338	0.00	29.616 
05:30	64.3	64.3	64.3	97	63.4	0	1	338	0.00	29.615 
05:35	64.3	64.3	64.3	97	63.4	0	0	---	0.00	29.615 
05:40	64.3	64.3	64.3	97	63.4	0	1	338	0.00	29.615 
05:45	64.2	64.2	64.2	97	63.3	0	0	---	0.00	29.616 
05:50	64.2	64.2	64.2	97	63.3	0	0	---	0.00	29.616 
05:55	64.2	64.2	64.2	97	63.3	0	1	338	0.00	29.616 
06:00	64.2	64.2	64.2	97	63.3	0	1	338	0.00	29.615 
06:05	64.0	64.0	64.0	97	63.1	0	0	---	0.00	29.615 
06:10	64.0	64.0	64.0	97	63.1	0	0	---	0.00	29.615 
06:15	64.0	64.0	64.0	97	63.1	0	1	338	0.00	29.616 
06:20	63.9	63.9	63.9	97	63.0	0	1	338	0.00	29.616 
06:25	63.9	63.9	63.9	97	63.0	0	0	---	0.00	29.616 
06:30	63.9	63.9	63.9	97	63.0	0	0	---	0.00	29.617 
06:35	63.9	63.9	63.9	97	63.0	0	0	---	0.00	29.617 
06:40	64.0	64.0	64.0	97	63.1	0	1	338	0.00	29.617 
06:45	64.0	64.0	64.0	97	63.1	0	1	338	0.00	29.616 
06:50	64.0	64.0	64.0	97	63.1	0	1	338	0.00	29.616 
06:55	64.2	64.2	64.2	97	63.3	0	1	338	0.00	29.616 
07:00	64.2	64.2	64.2	97	63.3	0	2	338	0.00	29.614 
07:05	64.2	64.2	64.2	97	63.3	0	1	338	0.00	29.614 
07:10	64.3	64.3	64.3	97	63.4	0	1	338	0.00	29.614 
07:15	64.3	64.3	64.3	97	63.4	0	1	338	0.00	29.614 
07:20	64.5	64.5	64.5	97	63.6	0	1	338	0.00	29.614 
07:25	64.7	64.7	64.7	97	63.8	0	0	---	0.00	29.614 
07:30	64.7	64.7	64.7	97	63.8	0	1	338	0.00	29.612 
07:35	64.8	64.8	64.8	97	63.9	0	1	338	0.00	29.612 
07:40	64.8	64.8	64.8	97	63.9	0	2	338	0.00	29.612 
07:45	65.0	65.0	65.0	97	64.1	0	1	338	0.00	29.614 
07:50	65.0	65.0	65.0	97	64.1	0	1	338	0.00	29.614 
07:55	65.2	65.2	65.2	97	64.3	0	2	338	0.00	29.614 
08:00	65.3	65.3	65.3	97	64.4	0	0	---	0.00	29.614 
08:05	65.6	65.6	65.6	97	64.7	0	3	338	0.00	29.614 
08:10	65.5	65.5	65.5	97	64.6	0	2	315	0.00	29.614 
08:15	65.5	65.5	65.5	97	64.6	0	5	292	0.00	29.610 
08:20	65.5	65.5	65.5	97	64.6	0	2	292	0.00	29.610 
08:25	65.6	65.6	65.6	97	64.7	0	1	292	0.00	29.610 
08:30	65.6	65.6	65.6	97	64.7	0	2	292	0.00	29.610 
08:35	65.8	65.8	65.8	97	64.9	0	2	292	0.00	29.610 
08:40	65.8	65.8	65.8	96	64.6	0	2	292	0.00	29.610 
08:45	65.8	65.8	65.8	96	64.6	0	2	292	0.00	29.606 
08:50	66.0	66.0	66.0	96	64.8	0	1	292	0.00	29.606 
08:55	66.4	66.4	66.4	96	65.2	0	3	292	0.00	29.606 
09:00	67.1	67.1	67.1	96	65.9	0	3	68	0.00	29.602 
09:05	67.6	67.6	67.6	96	66.4	0	1	68	0.00	29.602 
09:10	67.8	67.8	67.8	95	66.3	1	4	270	0.00	29.602 
09:15	67.9	67.9	67.9	94	66.1	0	3	270	0.00	29.607 
09:20	67.8	67.8	67.8	93	65.7	1	3	315	0.00	29.607 
09:25	67.9	67.9	67.9	91	65.2	1	5	292	0.00	29.607 
09:30	68.1	68.1	68.1	90	65.0	1	3	292	0.00	29.608 
09:35	68.6	68.6	68.6	88	64.9	1	4	292	0.00	29.608 
09:40	68.8	68.8	68.8	86	64.4	1	5	292	0.00	29.608 
09:45	69.4	69.4	69.4	85	64.7	1	3	292	0.00	29.612 
09:50	69.8	69.8	69.8	82	64.0	1	5	270	0.00	29.612 
09:55	70.1	70.1	70.1	80	63.6	1	4	270	0.00	29.612 
10:00	70.1	70.1	70.1	77	62.5	2	6	270	0.00	29.612 
10:05	70.4	70.4	70.4	78	63.2	1	5	270	0.00	29.612 
10:10	70.6	70.6	70.6	77	63.0	0	2	292	0.00	29.612 
10:15	70.8	70.8	70.8	77	63.2	1	2	315	0.00	29.609 
10:20	70.4	70.4	70.4	75	62.1	2	6	292	0.00	29.609 
10:25	70.3	70.3	70.3	75	62.0	3	6	292	0.00	29.609 
10:30	70.4	70.4	70.4	75	62.1	1	5	270	0.00	29.606 
10:35	70.8	70.8	70.8	75	62.5	2	6	270	0.00	29.606 
10:40	70.9	70.9	70.9	75	62.6	1	5	292	0.00	29.606 
10:45	70.6	70.6	70.6	73	61.5	3	7	292	0.00	29.602 
10:50	70.4	70.4	70.4	73	61.3	2	4	292	0.00	29.602 
10:55	70.9	70.9	70.9	73	61.8	2	6	270	0.00	29.602 
11:00	71.3	71.3	71.3	73	62.2	1	5	292	0.00	29.599 
11:05	71.8	71.8	71.8	73	62.7	1	3	292	0.00	29.599 
11:10	72.1	72.1	72.1	72	62.6	2	5	292	0.00	29.599 
11:15	72.7	72.7	72.7	69	61.9	2	5	292	0.00	29.599 
11:20	73.2	73.2	73.2	68	62.0	1	5	292	0.00	29.599 
11:25	73.7	73.7	73.7	66	61.6	2	6	270	0.00	29.599 
11:30	73.7	73.7	73.7	64	60.7	3	10	292	0.00	29.597 
11:35	72.8	72.8	72.8	65	60.3	5	10	292	0.00	29.597 
11:40	72.3	72.3	72.3	67	60.7	3	7	292	0.00	29.597 
11:45	71.6	71.6	71.6	68	60.5	3	6	292	0.00	29.604 
11:50	71.1	71.1	71.1	71	61.2	3	6	270	0.00	29.604 
11:55	70.9	70.9	70.9	73	61.8	2	5	270	0.00	29.604 
12:00	70.9	70.9	70.9	72	61.4	2	5	292	0.00	29.607 
12:05	70.9	70.9	70.9	72	61.4	2	7	292	0.00	29.607 
12:10	71.1	71.1	71.1	72	61.6	2	4	292	0.00	29.607 
12:15	72.0	72.0	72.0	73	62.9	2	7	292	0.00	29.605 
12:20	72.7	72.7	72.7	69	61.9	3	6	292	0.00	29.605 
12:25	73.2	73.2	73.2	69	62.4	2	8	292	0.00	29.605 
12:30	73.5	73.5	73.5	67	61.9	1	4	270	0.00	29.601 
12:35	73.7	73.7	73.7	64	60.7	3	7	292	0.00	29.601 
12:40	73.2	73.2	73.2	63	59.8	2	7	292	0.00	29.601 
12:45	73.3	73.3	73.3	64	60.4	2	7	270	0.00	29.600 
12:50	73.3	73.3	73.3	64	60.4	3	10	292	0.00	29.600 
12:55	73.7	73.7	73.7	62	59.9	1	5	292	0.00	29.600 
13:00	73.9	73.9	73.9	60	59.1	3	7	270	0.00	29.596 
13:05	74.0	74.0	74.0	63	60.6	2	5	292	0.00	29.596 
13:10	74.0	74.0	74.0	62	60.1	1	5	270	0.00	29.596 
13:15	74.0	74.0	74.0	62	60.1	2	5	270	0.00	29.592 
13:20	74.4	74.4	74.4	61	60.1	2	6	270	0.00	29.592 
13:25	74.4	74.4	74.4	60	59.6	3	10	270	0.00	29.592 
13:30	74.2	74.2	74.2	61	59.9	2	6	292	0.00	29.592 
13:35	74.2	74.2	74.2	60	59.4	3	14	292	0.00	29.592 
13:40	73.9	73.9	73.9	58	58.2	4	9	270	0.00	29.592 
13:45	73.3	73.3	73.3	58	57.6	5	9	270	0.00	29.590 
13:50	73.2	73.2	73.2	61	58.9	4	10	270	0.00	29.590 
13:55	72.8	72.8	72.8	61	58.6	3	9	270	0.00	29.590 
14:00	72.1	72.1	72.1	61	57.9	4	9	270	0.00	29.595 
14:05	72.0	72.0	72.0	62	58.3	2	7	292	0.00	29.595 
14:10	72.0	72.0	72.0	63	58.7	4	9	292	0.00	29.595 
14:15	71.6	71.6	71.6	64	58.8	4	7	292	0.00	29.596 
14:20	71.1	71.1	71.1	66	59.2	3	9	315	0.00	29.596 
14:25	70.4	70.4	70.4	70	60.1	3	5	315	0.00	29.596 
14:30	69.9	69.9	69.9	72	60.4	1	4	292	0.00	29.603 
14:35	70.1	70.1	70.1	72	60.6	2	4	292	0.00	29.603 
14:40	70.4	70.4	70.4	71	60.5	3	8	292	0.00	29.603 
14:45	71.5	71.5	71.5	67	60.0	5	10	292	0.00	29.599 
14:50	72.1	72.1	72.1	64	59.2	4	10	292	0.00	29.599 
14:55	72.3	72.3	72.3	62	58.5	4	10	270	0.00	29.599 
15:00	72.7	72.7	72.7	64	59.8	4	9	292	0.00	29.602 
15:05	73.5	73.5	73.5	63	60.1	3	6	315	0.00	29.602 
15:10	74.0	74.0	74.0	61	59.7	3	7	292	0.00	29.602 
15:15	74.4	74.4	74.4	58	58.6	3	7	270	0.00	29.604 
15:20	73.9	73.9	73.9	59	58.7	4	8	270	0.00	29.604 
15:25	73.7	73.7	73.7	60	58.9	4	9	270	0.00	29.604 
15:30	73.9	73.9	73.9	59	58.7	4	7	292	0.00	29.601 
15:35	73.9	73.9	73.9	59	58.7	4	9	292	0.00	29.601 
15:40	73.9	73.9	73.9	59	58.7	2	5	292	0.00	29.601 
15:45	73.5	73.5	73.5	59	58.3	2	6	270	0.00	29.601 
15:50	73.0	73.0	73.0	61	58.7	3	9	315	0.00	29.601 
15:55	72.1	72.1	72.1	61	57.9	3	7	270	0.00	29.601 
16:00	71.8	71.8	71.8	62	58.1	2	4	315	0.00	29.609 
16:05	71.6	71.6	71.6	63	58.3	2	5	315	0.00	29.609 
16:10	71.5	71.5	71.5	62	57.8	4	9	270	0.00	29.609 
16:15	72.1	72.1	72.1	62	58.3	4	7	270	0.00	29.608 
16:20	73.0	73.0	73.0	59	57.8	4	9	270	0.00	29.608 
16:25	73.5	73.5	73.5	58	57.8	4	13	270	0.00	29.608 
16:30	73.7	73.7	73.7	58	58.0	4	7	292	0.00	29.603 
16:35	73.5	73.5	73.5	58	57.8	4	7	270	0.00	29.603 
16:40	73.7	73.7	73.7	58	58.0	4	8	315	0.00	29.603 
16:45	73.7	73.7	73.7	58	58.0	4	7	315	0.00	29.605 
16:50	73.5	73.5	73.5	58	57.8	3	6	270	0.00	29.605 
16:55	73.9	73.9	73.9	58	58.2	3	7	270	0.00	29.605 
17:00	74.6	74.6	74.6	56	57.8	3	7	270	0.00	29.609 
17:05	74.7	74.7	74.7	55	57.4	3	10	270	0.00	29.609 
17:10	75.3	75.3	77.7	54	57.5	3	7	270	0.00	29.609 
17:15	75.6	75.6	77.9	52	56.7	3	7	270	0.00	29.608 
17:20	75.6	75.6	77.9	51	56.2	4	9	270	0.00	29.608 
17:25	75.8	75.8	78.0	52	56.9	3	6	270	0.00	29.608 
17:30	75.6	75.6	77.9	52	56.7	3	7	270	0.00	29.609 
17:35	74.9	74.9	74.9	52	56.1	3	8	292	0.00	29.609 
17:40	74.6	74.6	74.6	52	55.8	3	6	292	0.00	29.609 
17:45	74.2	74.2	74.2	52	55.4	3	9	292	0.00	29.610 
17:50	74.6	74.6	74.6	54	56.8	2	4	270	0.00	29.610 
17:55	75.3	75.3	77.7	50	55.4	3	8	270	0.00	29.610 
18:00	75.8	75.8	78.0	49	55.3	4	7	292	0.00	29.610 
18:05	75.8	75.8	78.0	50	55.8	4	7	270	0.00	29.610 
18:10	75.8	75.8	78.0	49	55.3	4	9	270	0.00	29.610 
18:15	75.4	75.4	77.8	49	54.9	4	7	270	0.00	29.615 
18:20	75.1	75.1	77.7	50	55.2	3	5	270	0.00	29.615 
18:25	75.4	75.4	77.8	50	55.4	3	6	292	0.00	29.615 
18:30	75.1	75.1	77.7	50	55.2	2	5	270	0.00	29.621 
18:35	74.6	74.6	74.6	51	55.3	2	5	270	0.00	29.621 
18:40	74.4	74.4	74.4	52	55.6	3	6	270	0.00	29.621 
18:45	75.1	75.1	77.7	51	55.7	3	7	270	0.00	29.625 
18:50	75.3	75.3	77.7	50	55.4	3	9	315	0.00	29.625 
18:55	75.3	75.3	77.7	48	54.2	2	6	338	0.00	29.625 
19:00	75.4	75.4	77.8	48	54.3	2	7	292	0.00	29.626 
19:05	75.6	75.6	77.9	48	54.5	2	5	270	0.00	29.626 
19:10	75.6	75.6	77.8	46	53.3	3	6	292	0.00	29.626 
19:15	75.6	75.6	77.8	45	52.7	3	6	315	0.00	29.625 
19:20	75.4	75.4	77.7	44	52.0	3	6	292	0.00	29.625 
19:25	75.3	75.3	77.7	43	51.2	3	5	292	0.00	29.625 
19:30	75.1	75.1	77.6	43	51.1	3	7	292	0.00	29.633 
19:35	74.9	74.9	74.9	44	51.5	2	5	292	0.00	29.633 
19:40	74.9	74.9	74.9	44	51.5	3	7	270	0.00	29.633 
19:45	74.7	74.7	74.7	43	50.7	3	6	292	0.00	29.634 
19:50	74.7	74.7	74.7	44	51.3	2	4	292	0.00	29.634 
19:55	74.7	74.7	74.7	45	51.9	1	2	292	0.00	29.634 
20:00	74.6	74.6	74.6	45	51.8	1	3	292	0.00	29.639 
20:05	74.6	74.6	74.6	45	51.8	1	3	292	0.00	29.639 
20:10	74.4	74.4	74.4	45	51.7	2	4	292	0.00	29.639 
20:15	74.2	74.2	74.2	44	50.9	2	5	292	0.00	29.641 
20:20	74.0	74.0	74.0	45	51.3	1	3	292	0.00	29.641 
20:25	73.9	73.9	73.9	45	51.2	1	5	292	0.00	29.641 
20:30	73.7	73.7	73.7	46	51.6	1	4	292	0.00	29.645 
20:35	73.5	73.5	73.5	47	52.0	0	1	292	0.00	29.645 
20:40	73.2	73.2	73.2	47	51.7	0	1	292	0.00	29.645 
20:45	73.0	73.0	73.0	49	52.7	0	1	292	0.00	29.645 
20:50	72.7	72.7	72.7	49	52.4	0	1	292	0.00	29.645 
20:55	72.3	72.3	72.3	50	52.6	0	0	---	0.00	29.645 
21:00	72.1	72.1	72.1	50	52.4	0	0	---	0.00	29.650 
21:05	71.6	71.6	71.6	51	52.5	0	0	---	0.00	29.650 
21:10	71.3	71.3	71.3	52	52.8	0	0	---	0.00	29.650 
21:15	70.9	70.9	70.9	53	52.9	0	0	---	0.00	29.652 
21:20	70.4	70.4	70.4	54	52.9	0	0	---	0.00	29.652 
21:25	70.1	70.1	70.1	55	53.2	0	0	---	0.00	29.652 
21:30	69.8	69.8	69.8	56	53.4	0	0	---	0.00	29.651 
21:35	69.3	69.3	69.3	57	53.4	0	0	---	0.00	29.651 
21:40	68.9	68.9	68.9	58	53.5	0	0	---	0.00	29.651 
21:45	68.6	68.6	68.6	59	53.7	0	0	---	0.00	29.657 
21:50	68.3	68.3	68.3	60	53.9	0	0	---	0.00	29.657 
21:55	67.9	67.9	67.9	61	53.9	0	0	---	0.00	29.657 
22:00	67.8	67.8	67.8	62	54.3	0	0	---	0.00	29.657 
22:05	67.4	67.4	67.4	62	53.9	0	0	---	0.00	29.657 
22:10	67.3	67.3	67.3	63	54.3	0	0	---	0.00	29.657 
22:15	66.9	66.9	66.9	64	54.3	0	0	---	0.00	29.659 
22:20	66.8	66.8	66.8	64	54.2	0	0	---	0.00	29.659 
22:25	66.6	66.6	66.6	65	54.5	0	0	---	0.00	29.659 
22:30	66.4	66.4	66.4	65	54.3	0	0	---	0.00	29.661 
22:35	66.3	66.3	66.3	65	54.2	0	0	---	0.00	29.661 
22:40	66.1	66.1	66.1	65	54.0	0	0	---	0.00	29.661 
22:45	66.1	66.1	66.1	65	54.0	0	0	---	0.00	29.659 
22:50	65.8	65.8	65.8	66	54.1	0	0	---	0.00	29.659 
22:55	65.6	65.6	65.6	66	53.9	0	0	---	0.00	29.659 
23:00	65.6	65.6	65.6	67	54.3	0	0	---	0.00	29.655 
23:05	65.6	65.6	65.6	68	54.7	0	0	---	0.00	29.655 
23:10	65.6	65.6	65.6	68	54.7	0	1	292	0.00	29.655 
23:15	65.6	65.6	65.6	68	54.7	0	0	---	0.00	29.648 
23:20	65.8	65.8	65.8	68	54.9	0	0	---	0.00	29.648 
23:25	66.0	66.0	66.0	67	54.7	0	0	---	0.00	29.648 
23:30	66.0	66.0	66.0	67	54.7	0	0	---	0.00	29.650 
23:35	66.1	66.1	66.1	66	54.4	0	0	---	0.00	29.650 
23:40	66.3	66.3	66.3	65	54.2	0	1	292	0.00	29.650 
23:45	66.4	66.4	66.4	65	54.3	0	1	292	0.00	29.645 
23:50	66.8	66.8	66.8	64	54.2	0	1	292	0.00	29.645 
23:55	66.9	66.9	66.9	64	54.3	0	0	---	0.00	29.645 

CoCoRaHS
IN-AL-39
A2 Web Hosting
Creative Commons License
GoDaddy
search engine by freefind advanced

loaded 2018-11-17 13:08:50 • last modified 2010-11-18 10:43:29
Privacy PolicyDisclaimer
• wx.awcolley.com is powered by PmWiki v.2002016 •
• all content (unless otherwise noted) © 2018 A W Colley